sensor_id;sensor_type;location;lat;lon;timestamp;pressure;altitude;pressure_sealevel;temperature;humidity
57606;BME280;43430;48.204;11.556;2022-09-12T00:00:25;96244.75;;;10.74;100.00
57606;BME280;43430;48.204;11.556;2022-09-12T00:02:54;96242.13;;;10.74;100.00
57606;BME280;43430;48.204;11.556;2022-09-12T00:05:21;96237.59;;;10.81;100.00
57606;BME280;43430;48.204;11.556;2022-09-12T00:07:47;96231.16;;;10.77;100.00
57606;BME280;43430;48.204;11.556;2022-09-12T00:10:12;96235.06;;;10.68;100.00
57606;BME280;43430;48.204;11.556;2022-09-12T00:12:38;96242.19;;;10.67;100.00
57606;BME280;43430;48.204;11.556;2022-09-12T00:15:04;96247.81;;;10.71;100.00
57606;BME280;43430;48.204;11.556;2022-09-12T00:17:33;96245.19;;;10.71;100.00
57606;BME280;43430;48.204;11.556;2022-09-12T00:19:58;96227.09;;;10.75;100.00
57606;BME280;43430;48.204;11.556;2022-09-12T00:22:24;96231.56;;;10.74;100.00
57606;BME280;43430;48.204;11.556;2022-09-12T00:24:49;96235.59;;;10.77;100.00
57606;BME280;43430;48.204;11.556;2022-09-12T00:27:14;96224.19;;;10.83;100.00
57606;BME280;43430;48.204;11.556;2022-09-12T00:29:40;96214.66;;;10.82;100.00
57606;BME280;43430;48.204;11.556;2022-09-12T00:32:05;96209.69;;;10.74;100.00
57606;BME280;43430;48.204;11.556;2022-09-12T00:34:30;96207.47;;;10.71;100.00
57606;BME280;43430;48.204;11.556;2022-09-12T00:36:56;96202.81;;;10.66;100.00
57606;BME280;43430;48.204;11.556;2022-09-12T00:39:21;96210.16;;;10.64;100.00
57606;BME280;43430;48.204;11.556;2022-09-12T00:41:46;96203.75;;;10.53;100.00
57606;BME280;43430;48.204;11.556;2022-09-12T00:46:47;96204.34;;;10.30;100.00
57606;BME280;43430;48.204;11.556;2022-09-12T00:49:18;96211.22;;;10.25;100.00
57606;BME280;43430;48.204;11.556;2022-09-12T00:52:07;96213.28;;;10.29;100.00
57606;BME280;43430;48.204;11.556;2022-09-12T00:57:12;96210.84;;;10.21;100.00
57606;BME280;43430;48.204;11.556;2022-09-12T00:59:47;96209.44;;;10.18;100.00
57606;BME280;43430;48.204;11.556;2022-09-12T01:02:14;96207.03;;;10.17;100.00
57606;BME280;43430;48.204;11.556;2022-09-12T01:04:40;96200.97;;;10.16;100.00
57606;BME280;43430;48.204;11.556;2022-09-12T01:07:06;96203.97;;;10.27;100.00
57606;BME280;43430;48.204;11.556;2022-09-12T01:09:32;96196.44;;;10.30;100.00
57606;BME280;43430;48.204;11.556;2022-09-12T01:12:00;96186.09;;;10.29;100.00
57606;BME280;43430;48.204;11.556;2022-09-12T01:14:26;96191.81;;;10.26;100.00
57606;BME280;43430;48.204;11.556;2022-09-12T01:16:52;96181.03;;;10.27;100.00
57606;BME280;43430;48.204;11.556;2022-09-12T01:25:37;96181.09;;;10.14;100.00
57606;BME280;43430;48.204;11.556;2022-09-12T01:28:19;96183.16;;;10.12;100.00
57606;BME280;43430;48.204;11.556;2022-09-12T01:38:42;96171.78;;;10.11;100.00
57606;BME280;43430;48.204;11.556;2022-09-12T01:41:26;96175.69;;;10.09;100.00
57606;BME280;43430;48.204;11.556;2022-09-12T01:44:03;96176.94;;;9.99;100.00
57606;BME280;43430;48.204;11.556;2022-09-12T01:46:47;96172.75;;;9.92;100.00
57606;BME280;43430;48.204;11.556;2022-09-12T01:49:22;96178.22;;;9.90;100.00
57606;BME280;43430;48.204;11.556;2022-09-12T01:54:40;96177.78;;;9.93;100.00
57606;BME280;43430;48.204;11.556;2022-09-12T01:57:19;96165.25;;;9.89;100.00
57606;BME280;43430;48.204;11.556;2022-09-12T01:59:50;96162.41;;;9.90;100.00
57606;BME280;43430;48.204;11.556;2022-09-12T02:02:27;96153.25;;;9.99;100.00
57606;BME280;43430;48.204;11.556;2022-09-12T02:05:14;96147.38;;;9.97;100.00
57606;BME280;43430;48.204;11.556;2022-09-12T02:07:48;96148.25;;;9.91;100.00
57606;BME280;43430;48.204;11.556;2022-09-12T02:10:22;96150.03;;;9.91;100.00
57606;BME280;43430;48.204;11.556;2022-09-12T02:12:55;96148.25;;;9.91;100.00
57606;BME280;43430;48.204;11.556;2022-09-12T02:15:28;96131.06;;;9.82;100.00
57606;BME280;43430;48.204;11.556;2022-09-12T02:17:57;96136.22;;;9.70;100.00
57606;BME280;43430;48.204;11.556;2022-09-12T02:20:28;96139.47;;;9.66;100.00
57606;BME280;43430;48.204;11.556;2022-09-12T02:22:56;96136.03;;;9.65;100.00
57606;BME280;43430;48.204;11.556;2022-09-12T02:25:23;96136.84;;;9.66;100.00
57606;BME280;43430;48.204;11.556;2022-09-12T02:27:54;96135.56;;;9.75;100.00
57606;BME280;43430;48.204;11.556;2022-09-12T02:30:24;96127.63;;;9.82;100.00
57606;BME280;43430;48.204;11.556;2022-09-12T02:33:01;96126.03;;;9.81;100.00
57606;BME280;43430;48.204;11.556;2022-09-12T02:35:43;96130.97;;;9.70;100.00
57606;BME280;43430;48.204;11.556;2022-09-12T02:38:19;96125.50;;;9.65;100.00
57606;BME280;43430;48.204;11.556;2022-09-12T02:40:47;96131.00;;;9.64;100.00
57606;BME280;43430;48.204;11.556;2022-09-12T02:43:13;96124.88;;;9.63;100.00
57606;BME280;43430;48.204;11.556;2022-09-12T02:45:38;96127.34;;;9.65;100.00
57606;BME280;43430;48.204;11.556;2022-09-12T02:48:14;96124.50;;;9.60;100.00
57606;BME280;43430;48.204;11.556;2022-09-12T02:50:42;96123.31;;;9.56;100.00
57606;BME280;43430;48.204;11.556;2022-09-12T02:53:08;96131.00;;;9.64;100.00
57606;BME280;43430;48.204;11.556;2022-09-12T02:55:35;96126.25;;;9.72;100.00
57606;BME280;43430;48.204;11.556;2022-09-12T02:58:04;96122.81;;;9.72;100.00
57606;BME280;43430;48.204;11.556;2022-09-12T03:00:36;96119.41;;;9.71;100.00
57606;BME280;43430;48.204;11.556;2022-09-12T03:06:08;96120.50;;;9.57;100.00
57606;BME280;43430;48.204;11.556;2022-09-12T03:26:20;96112.06;;;9.42;100.00
57606;BME280;43430;48.204;11.556;2022-09-12T03:28:48;96110.31;;;9.29;100.00
57606;BME280;43430;48.204;11.556;2022-09-12T03:31:15;96117.78;;;9.32;100.00
57606;BME280;43430;48.204;11.556;2022-09-12T03:33:41;96121.63;;;9.36;100.00
57606;BME280;43430;48.204;11.556;2022-09-12T03:36:36;96111.75;;;9.18;100.00
57606;BME280;43430;48.204;11.556;2022-09-12T03:39:01;96112.41;;;9.14;100.00
57606;BME280;43430;48.204;11.556;2022-09-12T03:41:27;96115.03;;;9.14;100.00
57606;BME280;43430;48.204;11.556;2022-09-12T03:43:52;96119.09;;;9.10;100.00
57606;BME280;43430;48.204;11.556;2022-09-12T03:46:18;96111.00;;;9.04;100.00
57606;BME280;43430;48.204;11.556;2022-09-12T03:48:43;96120.13;;;9.09;100.00
57606;BME280;43430;48.204;11.556;2022-09-12T03:51:09;96120.28;;;9.14;100.00
57606;BME280;43430;48.204;11.556;2022-09-12T03:53:34;96109.78;;;9.14;100.00
57606;BME280;43430;48.204;11.556;2022-09-12T03:56:05;96115.41;;;9.17;100.00
57606;BME280;43430;48.204;11.556;2022-09-12T03:58:31;96112.59;;;9.19;100.00
57606;BME280;43430;48.204;11.556;2022-09-12T04:00:57;96109.56;;;9.15;100.00
57606;BME280;43430;48.204;11.556;2022-09-12T04:03:23;96110.22;;;8.97;100.00
57606;BME280;43430;48.204;11.556;2022-09-12T04:05:48;96105.78;;;8.98;100.00
57606;BME280;43430;48.204;11.556;2022-09-12T04:08:14;96110.59;;;9.08;100.00
57606;BME280;43430;48.204;11.556;2022-09-12T04:10:39;96118.69;;;9.13;100.00
57606;BME280;43430;48.204;11.556;2022-09-12T04:13:05;96114.41;;;9.12;100.00
57606;BME280;43430;48.204;11.556;2022-09-12T04:15:30;96112.81;;;9.11;100.00
57606;BME280;43430;48.204;11.556;2022-09-12T04:17:56;96113.44;;;9.13;100.00
57606;BME280;43430;48.204;11.556;2022-09-12T04:20:21;96109.16;;;9.12;100.00
57606;BME280;43430;48.204;11.556;2022-09-12T04:22:47;96110.41;;;9.09;100.00
57606;BME280;43430;48.204;11.556;2022-09-12T04:25:12;96110.59;;;9.08;100.00
57606;BME280;43430;48.204;11.556;2022-09-12T04:27:38;96111.88;;;8.98;100.00
57606;BME280;43430;48.204;11.556;2022-09-12T04:30:04;96119.38;;;8.88;100.00
57606;BME280;43430;48.204;11.556;2022-09-12T04:32:30;96122.03;;;8.82;100.00
57606;BME280;43430;48.204;11.556;2022-09-12T04:34:56;96122.03;;;8.82;100.00
57606;BME280;43430;48.204;11.556;2022-09-12T04:37:22;96123.25;;;8.79;100.00
57606;BME280;43430;48.204;11.556;2022-09-12T04:39:48;96115.59;;;8.71;100.00
57606;BME280;43430;48.204;11.556;2022-09-12T04:42:15;96117.81;;;8.67;100.00
57606;BME280;43430;48.204;11.556;2022-09-12T04:44:40;96122.47;;;8.65;100.00
57606;BME280;43430;48.204;11.556;2022-09-12T04:47:05;96115.22;;;8.61;100.00
57606;BME280;43430;48.204;11.556;2022-09-12T04:49:32;96120.47;;;8.61;100.00
57606;BME280;43430;48.204;11.556;2022-09-12T04:51:57;96123.69;;;8.63;100.00
57606;BME280;43430;48.204;11.556;2022-09-12T04:54:23;96125.50;;;8.55;100.00
57606;BME280;43430;48.204;11.556;2022-09-12T04:56:49;96129.16;;;8.54;100.00
57606;BME280;43430;48.204;11.556;2022-09-12T04:59:20;96131.38;;;8.58;100.00
57606;BME280;43430;48.204;11.556;2022-09-12T05:01:46;96131.97;;;8.60;100.00
57606;BME280;43430;48.204;11.556;2022-09-12T05:04:12;96126.72;;;8.60;100.00
57606;BME280;43430;48.204;11.556;2022-09-12T05:06:39;96126.94;;;8.58;100.00
57606;BME280;43430;48.204;11.556;2022-09-12T05:09:06;96121.69;;;8.58;100.00
57606;BME280;43430;48.204;11.556;2022-09-12T05:11:34;96125.72;;;8.54;100.00
57606;BME280;43430;48.204;11.556;2022-09-12T05:14:00;96131.38;;;8.58;100.00
57606;BME280;43430;48.204;11.556;2022-09-12T05:16:28;96128.53;;;8.72;100.00
57606;BME280;43430;48.204;11.556;2022-09-12T05:18:55;96122.84;;;8.82;100.00
57606;BME280;43430;48.204;11.556;2022-09-12T05:21:22;96127.69;;;8.85;100.00
57606;BME280;43430;48.204;11.556;2022-09-12T05:23:50;96135.34;;;8.87;100.00
57606;BME280;43430;48.204;11.556;2022-09-12T05:26:17;96130.50;;;8.84;100.00
57606;BME280;43430;48.204;11.556;2022-09-12T05:28:45;96136.16;;;8.87;100.00
57606;BME280;43430;48.204;11.556;2022-09-12T05:31:12;96135.34;;;8.93;100.00
57606;BME280;43430;48.204;11.556;2022-09-12T05:33:40;96138.97;;;8.99;100.00
57606;BME280;43430;48.204;11.556;2022-09-12T05:36:09;96138.53;;;9.09;100.00
57606;BME280;43430;48.204;11.556;2022-09-12T05:38:35;96141.91;;;9.29;100.00
57606;BME280;43430;48.204;11.556;2022-09-12T05:41:05;96131.53;;;9.34;100.00
57606;BME280;43430;48.204;11.556;2022-09-12T05:43:32;96138.75;;;9.45;100.00
57606;BME280;43430;48.204;11.556;2022-09-12T05:46:05;96147.25;;;9.54;100.00
57606;BME280;43430;48.204;11.556;2022-09-12T05:48:39;96153.47;;;9.60;100.00
57606;BME280;43430;48.204;11.556;2022-09-12T05:51:10;96140.69;;;9.63;100.00
57606;BME280;43430;48.204;11.556;2022-09-12T05:53:36;96153.78;;;9.77;100.00
57606;BME280;43430;48.204;11.556;2022-09-12T05:56:15;96149.81;;;9.99;100.00
57606;BME280;43430;48.204;11.556;2022-09-12T05:58:46;96138.06;;;10.52;100.00
57606;BME280;43430;48.204;11.556;2022-09-12T06:01:14;96114.47;;;11.30;100.00
57606;BME280;43430;48.204;11.556;2022-09-12T06:03:42;96100.28;;;12.15;100.00
57606;BME280;43430;48.204;11.556;2022-09-12T06:06:09;96088.66;;;12.75;100.00
57606;BME280;43430;48.204;11.556;2022-09-12T06:08:38;96084.34;;;13.09;100.00
57606;BME280;43430;48.204;11.556;2022-09-12T06:11:05;96085.09;;;13.33;100.00
57606;BME280;43430;48.204;11.556;2022-09-12T06:13:32;96083.72;;;13.30;100.00
57606;BME280;43430;48.204;11.556;2022-09-12T06:16:06;96078.78;;;13.22;100.00
57606;BME280;43430;48.204;11.556;2022-09-12T06:18:33;96084.84;;;12.82;100.00
57606;BME280;43430;48.204;11.556;2022-09-12T06:21:10;96098.00;;;12.42;100.00
57606;BME280;43430;48.204;11.556;2022-09-12T06:23:36;96095.91;;;12.09;100.00
57606;BME280;43430;48.204;11.556;2022-09-12T06:26:03;96094.06;;;11.98;100.00
57606;BME280;43430;48.204;11.556;2022-09-12T06:28:30;96091.38;;;11.86;100.00
57606;BME280;43430;48.204;11.556;2022-09-12T06:31:03;96083.31;;;11.81;100.00
57606;BME280;43430;48.204;11.556;2022-09-12T06:33:30;96089.94;;;11.72;100.00
57606;BME280;43430;48.204;11.556;2022-09-12T06:36:09;96106.78;;;11.59;100.00
57606;BME280;43430;48.204;11.556;2022-09-12T06:38:36;96096.38;;;11.76;100.00
57606;BME280;43430;48.204;11.556;2022-09-12T06:41:06;96100.34;;;11.85;100.00
57606;BME280;43430;48.204;11.556;2022-09-12T06:43:33;96101.75;;;11.99;100.00
57606;BME280;43430;48.204;11.556;2022-09-12T06:45:59;96091.06;;;12.06;100.00
57606;BME280;43430;48.204;11.556;2022-09-12T06:48:24;96087.84;;;12.04;100.00
57606;BME280;43430;48.204;11.556;2022-09-12T06:50:58;96090.72;;;12.14;100.00
57606;BME280;43430;48.204;11.556;2022-09-12T06:53:25;96097.75;;;12.20;100.00
57606;BME280;43430;48.204;11.556;2022-09-12T06:56:00;96096.59;;;12.28;100.00
57606;BME280;43430;48.204;11.556;2022-09-12T06:58:27;96091.78;;;12.48;100.00
57606;BME280;43430;48.204;11.556;2022-09-12T07:01:00;96100.53;;;12.61;100.00
57606;BME280;43430;48.204;11.556;2022-09-12T07:03:26;96093.03;;;12.69;100.00
57606;BME280;43430;48.204;11.556;2022-09-12T07:05:52;96089.34;;;12.82;100.00
57606;BME280;43430;48.204;11.556;2022-09-12T07:08:17;96092.56;;;12.84;100.00
57606;BME280;43430;48.204;11.556;2022-09-12T07:10:43;96091.78;;;12.83;100.00
57606;BME280;43430;48.204;11.556;2022-09-12T07:13:08;96090.81;;;12.90;100.00
57606;BME280;43430;48.204;11.556;2022-09-12T07:15:34;96087.50;;;12.94;100.00
57606;BME280;43430;48.204;11.556;2022-09-12T07:18:00;96078.38;;;13.02;100.00
57606;BME280;43430;48.204;11.556;2022-09-12T07:20:25;96081.94;;;13.07;100.00
57606;BME280;43430;48.204;11.556;2022-09-12T07:22:51;96086.53;;;13.12;100.00
57606;BME280;43430;48.204;11.556;2022-09-12T07:25:16;96084.91;;;13.11;100.00
57606;BME280;43430;48.204;11.556;2022-09-12T07:27:41;96087.09;;;13.26;100.00
57606;BME280;43430;48.204;11.556;2022-09-12T07:30:07;96086.00;;;13.39;100.00
57606;BME280;43430;48.204;11.556;2022-09-12T07:32:33;96092.78;;;13.46;100.00
57606;BME280;43430;48.204;11.556;2022-09-12T07:34:58;96081.44;;;13.51;100.00
57606;BME280;43430;48.204;11.556;2022-09-12T07:37:24;96081.06;;;13.59;100.00
57606;BME280;43430;48.204;11.556;2022-09-12T07:39:49;96087.22;;;13.76;100.00
57606;BME280;43430;48.204;11.556;2022-09-12T07:42:15;96092.53;;;13.76;100.00
57606;BME280;43430;48.204;11.556;2022-09-12T07:44:41;96092.53;;;13.48;100.00
57606;BME280;43430;48.204;11.556;2022-09-12T07:47:06;96099.13;;;13.62;100.00
57606;BME280;43430;48.204;11.556;2022-09-12T07:49:31;96092.59;;;13.82;100.00
57606;BME280;43430;48.204;11.556;2022-09-12T07:51:57;96087.78;;;13.95;100.00
57606;BME280;43430;48.204;11.556;2022-09-12T07:54:22;96086.09;;;14.06;99.69
57606;BME280;43430;48.204;11.556;2022-09-12T07:56:47;96088.69;;;14.01;99.64
57606;BME280;43430;48.204;11.556;2022-09-12T07:59:13;96087.97;;;14.06;99.52
57606;BME280;43430;48.204;11.556;2022-09-12T08:01:38;96087.81;;;14.12;99.15
57606;BME280;43430;48.204;11.556;2022-09-12T08:04:04;96086.00;;;14.35;97.77
57606;BME280;43430;48.204;11.556;2022-09-12T08:06:29;96086.91;;;14.57;98.09
57606;BME280;43430;48.204;11.556;2022-09-12T08:08:57;96088.56;;;14.80;96.02
57606;BME280;43430;48.204;11.556;2022-09-12T08:11:23;96080.97;;;14.89;92.88
57606;BME280;43430;48.204;11.556;2022-09-12T08:13:49;96091.63;;;15.11;91.49
57606;BME280;43430;48.204;11.556;2022-09-12T08:16:20;96088.22;;;15.15;88.42
57606;BME280;43430;48.204;11.556;2022-09-12T08:18:47;96084.69;;;15.10;89.08
57606;BME280;43430;48.204;11.556;2022-09-12T08:21:13;96087.44;;;15.20;91.48
57606;BME280;43430;48.204;11.556;2022-09-12T08:23:39;96077.44;;;15.49;88.50
57606;BME280;43430;48.204;11.556;2022-09-12T08:26:05;96074.56;;;15.56;86.05
57606;BME280;43430;48.204;11.556;2022-09-12T08:28:33;96080.38;;;15.53;84.19
57606;BME280;43430;48.204;11.556;2022-09-12T08:31:03;96080.19;;;15.59;83.97
57606;BME280;43430;48.204;11.556;2022-09-12T08:33:30;96071.78;;;15.68;81.81
57606;BME280;43430;48.204;11.556;2022-09-12T08:36:08;96079.34;;;15.81;82.49
57606;BME280;43430;48.204;11.556;2022-09-12T08:38:35;96080.94;;;15.82;80.15
57606;BME280;43430;48.204;11.556;2022-09-12T08:46:23;96076.97;;;16.11;78.78
57606;BME280;43430;48.204;11.556;2022-09-12T08:48:54;96078.63;;;16.23;79.78
57606;BME280;43430;48.204;11.556;2022-09-12T08:51:22;96083.94;;;16.18;81.19
57606;BME280;43430;48.204;11.556;2022-09-12T08:53:50;96078.88;;;15.89;80.32
57606;BME280;43430;48.204;11.556;2022-09-12T08:56:15;96081.41;;;16.01;79.48
57606;BME280;43430;48.204;11.556;2022-09-12T08:58:43;96078.63;;;16.18;78.12
57606;BME280;43430;48.204;11.556;2022-09-12T09:01:22;96074.38;;;16.22;77.17
57606;BME280;43430;48.204;11.556;2022-09-12T09:12:18;96064.81;;;17.16;72.52
57606;BME280;43430;48.204;11.556;2022-09-12T09:17:23;96063.78;;;16.69;74.09
57606;BME280;43430;48.204;11.556;2022-09-12T09:19:55;96062.56;;;16.87;73.74
57606;BME280;43430;48.204;11.556;2022-09-12T09:22:35;96054.59;;;16.92;73.14
57606;BME280;43430;48.204;11.556;2022-09-12T09:25:08;96055.38;;;16.93;71.11
57606;BME280;43430;48.204;11.556;2022-09-12T09:27:46;96056.25;;;17.03;70.24
57606;BME280;43430;48.204;11.556;2022-09-12T09:30:16;96050.66;;;17.05;70.52
57606;BME280;43430;48.204;11.556;2022-09-12T09:32:43;96050.19;;;17.18;69.57
57606;BME280;43430;48.204;11.556;2022-09-12T09:35:18;96047.75;;;17.17;69.40
57606;BME280;43430;48.204;11.556;2022-09-12T09:38:22;96046.72;;;17.18;71.82
57606;BME280;43430;48.204;11.556;2022-09-12T09:41:44;96043.25;;;17.22;70.98
57606;BME280;43430;48.204;11.556;2022-09-12T09:43:47;96038.25;;;17.46;67.83
57606;BME280;43430;48.204;11.556;2022-09-12T09:46:13;96040.38;;;17.39;67.35
57606;BME280;43430;48.204;11.556;2022-09-12T09:48:47;96039.84;;;17.42;67.10
57606;BME280;43430;48.204;11.556;2022-09-12T09:51:16;96035.63;;;17.56;66.01
57606;BME280;43430;48.204;11.556;2022-09-12T09:53:50;96038.28;;;17.56;67.47
57606;BME280;43430;48.204;11.556;2022-09-12T09:56:25;96032.94;;;17.62;72.30
57606;BME280;43430;48.204;11.556;2022-09-12T09:58:51;96036.16;;;17.74;67.07
57606;BME280;43430;48.204;11.556;2022-09-12T10:01:17;96041.81;;;17.77;65.75
57606;BME280;43430;48.204;11.556;2022-09-12T10:03:51;96038.88;;;17.84;65.97
57606;BME280;43430;48.204;11.556;2022-09-12T10:08:48;96035.66;;;17.92;64.76
57606;BME280;43430;48.204;11.556;2022-09-12T10:13:40;96031.44;;;17.96;66.74
57606;BME280;43430;48.204;11.556;2022-09-12T10:16:23;96028.50;;;17.93;65.72
57606;BME280;43430;48.204;11.556;2022-09-12T10:18:49;96030.59;;;18.06;68.58
57606;BME280;43430;48.204;11.556;2022-09-12T10:21:25;96030.09;;;18.04;64.75
57606;BME280;43430;48.204;11.556;2022-09-12T10:24:00;96022.88;;;18.05;66.39
57606;BME280;43430;48.204;11.556;2022-09-12T10:26:31;96021.25;;;18.19;66.73
57606;BME280;43430;48.204;11.556;2022-09-12T10:29:03;96017.28;;;18.11;64.67
57606;BME280;43430;48.204;11.556;2022-09-12T10:31:42;96013.78;;;18.06;64.55
57606;BME280;43430;48.204;11.556;2022-09-12T10:34:20;96008.19;;;18.07;67.94
57606;BME280;43430;48.204;11.556;2022-09-12T10:36:46;96012.97;;;18.25;65.77
57606;BME280;43430;48.204;11.556;2022-09-12T10:39:17;96010.31;;;18.31;66.09
57606;BME280;43430;48.204;11.556;2022-09-12T10:41:43;96014.03;;;18.30;67.12
57606;BME280;43430;48.204;11.556;2022-09-12T10:44:24;96007.09;;;18.39;66.13
57606;BME280;43430;48.204;11.556;2022-09-12T10:46:52;96008.41;;;18.36;66.67
57606;BME280;43430;48.204;11.556;2022-09-12T10:49:21;96008.41;;;18.46;65.43
57606;BME280;43430;48.204;11.556;2022-09-12T10:51:48;96013.75;;;18.52;65.15
57606;BME280;43430;48.204;11.556;2022-09-12T10:54:17;96012.06;;;18.71;60.42
57606;BME280;43430;48.204;11.556;2022-09-12T10:56:51;96008.59;;;18.70;62.64
57606;BME280;43430;48.204;11.556;2022-09-12T11:00:23;96007.84;;;18.60;61.82
57606;BME280;43430;48.204;11.556;2022-09-12T11:02:53;96011.84;;;18.62;62.76
57606;BME280;43430;48.204;11.556;2022-09-12T11:05:41;96005.69;;;18.72;60.98
57606;BME280;43430;48.204;11.556;2022-09-12T11:08:16;95999.75;;;18.90;59.07
57606;BME280;43430;48.204;11.556;2022-09-12T11:10:54;95994.84;;;19.08;61.14
57606;BME280;43430;48.204;11.556;2022-09-12T11:18:47;95998.16;;;18.89;60.95
57606;BME280;43430;48.204;11.556;2022-09-12T11:24:20;95989.84;;;18.91;59.03
57606;BME280;43430;48.204;11.556;2022-09-12T11:29:46;95982.03;;;19.10;59.28
57606;BME280;43430;48.204;11.556;2022-09-12T11:37:52;95972.47;;;19.43;55.00
57606;BME280;43430;48.204;11.556;2022-09-12T11:40:59;95973.25;;;19.43;54.73
57606;BME280;43430;48.204;11.556;2022-09-12T11:46:36;95970.31;;;19.45;52.39
57606;BME280;43430;48.204;11.556;2022-09-12T11:49:09;95974.28;;;19.48;53.18
57606;BME280;43430;48.204;11.556;2022-09-12T11:51:57;95970.25;;;19.55;51.03
57606;BME280;43430;48.204;11.556;2022-09-12T11:56:58;95975.38;;;19.47;54.14
57606;BME280;43430;48.204;11.556;2022-09-12T11:59:51;95969.00;;;19.42;53.21
57606;BME280;43430;48.204;11.556;2022-09-12T12:02:28;95967.97;;;19.33;53.66
57606;BME280;43430;48.204;11.556;2022-09-12T12:05:02;95965.22;;;19.49;52.38
57606;BME280;43430;48.204;11.556;2022-09-12T12:07:40;95955.22;;;19.59;50.82
57606;BME280;43430;48.204;11.556;2022-09-12T12:12:49;95960.78;;;19.73;49.20
57606;BME280;43430;48.204;11.556;2022-09-12T12:15:16;95964.69;;;19.86;52.99
57606;BME280;43430;48.204;11.556;2022-09-12T12:17:42;95960.53;;;19.99;52.38
57606;BME280;43430;48.204;11.556;2022-09-12T12:20:17;95962.75;;;19.91;53.47
57606;BME280;43430;48.204;11.556;2022-09-12T12:22:52;95957.63;;;19.95;50.29
57606;BME280;43430;48.204;11.556;2022-09-12T12:27:57;95962.34;;;19.79;47.59
57606;BME280;43430;48.204;11.556;2022-09-12T12:33:04;95948.56;;;19.91;49.48
57606;BME280;43430;48.204;11.556;2022-09-12T12:38:33;95952.41;;;20.09;51.58
57606;BME280;43430;48.204;11.556;2022-09-12T12:43:46;95948.06;;;20.18;51.09
57606;BME280;43430;48.204;11.556;2022-09-12T12:46:19;95940.56;;;20.44;49.20
57606;BME280;43430;48.204;11.556;2022-09-12T12:48:50;95935.22;;;20.44;48.16
57606;BME280;43430;48.204;11.556;2022-09-12T12:51:29;95933.66;;;20.38;46.46
57606;BME280;43430;48.204;11.556;2022-09-12T12:53:56;95929.63;;;20.41;48.15
57606;BME280;43430;48.204;11.556;2022-09-12T12:56:28;95929.78;;;20.25;46.87
57606;BME280;43430;48.204;11.556;2022-09-12T12:58:59;95921.19;;;19.99;47.54
57606;BME280;43430;48.204;11.556;2022-09-12T13:01:26;95924.97;;;20.22;48.04
57606;BME280;43430;48.204;11.556;2022-09-12T13:04:01;95923.41;;;20.45;48.62
57606;BME280;43430;48.204;11.556;2022-09-12T13:06:31;95917.84;;;20.66;47.65
57606;BME280;43430;48.204;11.556;2022-09-12T13:09:01;95920.09;;;20.53;46.72
57606;BME280;43430;48.204;11.556;2022-09-12T13:11:36;95917.16;;;20.55;46.22
57606;BME280;43430;48.204;11.556;2022-09-12T13:14:05;95911.91;;;20.45;49.23
57606;BME280;43430;48.204;11.556;2022-09-12T13:16:38;95910.50;;;20.47;49.60
57606;BME280;43430;48.204;11.556;2022-09-12T13:19:10;95900.97;;;20.65;46.11
57606;BME280;43430;48.204;11.556;2022-09-12T13:21:36;95899.78;;;20.71;44.34
57606;BME280;43430;48.204;11.556;2022-09-12T13:24:13;95903.88;;;20.69;45.29
57606;BME280;43430;48.204;11.556;2022-09-12T13:26:43;95894.50;;;20.66;46.92
57606;BME280;43430;48.204;11.556;2022-09-12T13:29:11;95880.53;;;20.69;48.37
57606;BME280;43430;48.204;11.556;2022-09-12T13:31:39;95888.81;;;20.73;46.74
57606;BME280;43430;48.204;11.556;2022-09-12T13:34:07;95876.91;;;20.60;46.45
57606;BME280;43430;48.204;11.556;2022-09-12T13:42:40;95878.56;;;20.56;48.45
57606;BME280;43430;48.204;11.556;2022-09-12T13:45:17;95889.41;;;20.65;50.25
57606;BME280;43430;48.204;11.556;2022-09-12T13:47:45;95884.38;;;20.63;49.50
57606;BME280;43430;48.204;11.556;2022-09-12T13:50:16;95883.63;;;20.57;50.18
57606;BME280;43430;48.204;11.556;2022-09-12T13:52:47;95882.44;;;20.69;49.15
57606;BME280;43430;48.204;11.556;2022-09-12T13:57:55;95875.13;;;20.93;46.79
57606;BME280;43430;48.204;11.556;2022-09-12T14:00:22;95869.75;;;20.93;44.87
57606;BME280;43430;48.204;11.556;2022-09-12T14:02:49;95863.59;;;20.55;47.07
57606;BME280;43430;48.204;11.556;2022-09-12T14:05:20;95861.25;;;20.67;46.54
57606;BME280;43430;48.204;11.556;2022-09-12T14:07:57;95863.09;;;20.72;48.13
57606;BME280;43430;48.204;11.556;2022-09-12T14:10:37;95864.59;;;20.78;47.28
57606;BME280;43430;48.204;11.556;2022-09-12T14:13:12;95847.94;;;20.81;47.24
57606;BME280;43430;48.204;11.556;2022-09-12T14:15:44;95854.47;;;20.94;47.51
57606;BME280;43430;48.204;11.556;2022-09-12T14:18:31;95847.22;;;20.94;46.74
57606;BME280;43430;48.204;11.556;2022-09-12T14:21:06;95848.47;;;20.83;44.16
57606;BME280;43430;48.204;11.556;2022-09-12T14:23:38;95850.34;;;20.82;44.91
57606;BME280;43430;48.204;11.556;2022-09-12T14:26:09;95846.94;;;20.96;43.85
57606;BME280;43430;48.204;11.556;2022-09-12T14:28:38;95850.13;;;20.98;43.27
57606;BME280;43430;48.204;11.556;2022-09-12T14:31:19;95843.66;;;20.99;44.46
57606;BME280;43430;48.204;11.556;2022-09-12T14:33:50;95843.38;;;21.00;45.42
57606;BME280;43430;48.204;11.556;2022-09-12T14:38:51;95829.84;;;20.92;45.67
57606;BME280;43430;48.204;11.556;2022-09-12T14:41:26;95836.28;;;20.91;45.89
57606;BME280;43430;48.204;11.556;2022-09-12T14:43:56;95828.91;;;20.82;46.39
57606;BME280;43430;48.204;11.556;2022-09-12T14:46:33;95832.59;;;20.86;45.47
57606;BME280;43430;48.204;11.556;2022-09-12T14:51:58;95829.34;;;20.90;46.03
57606;BME280;43430;48.204;11.556;2022-09-12T14:57:30;95827.22;;;20.68;44.19
57606;BME280;43430;48.204;11.556;2022-09-12T15:02:37;95840.84;;;20.71;44.54